createdAt,value
2022-12-18T00:03:39.577Z,101903.13
2022-12-18T00:08:45.313Z,101911.84
2022-12-18T00:13:48.715Z,101926.66
2022-12-18T00:18:53.449Z,101936.25
2022-12-18T00:23:55.205Z,101948.44
2022-12-18T00:29:03.519Z,101936.25
2022-12-18T00:34:07.583Z,101933.63
2022-12-18T00:39:09.523Z,101946.72
2022-12-18T00:44:13.735Z,101954.56
2022-12-18T00:49:17.987Z,101963.25
2022-12-18T00:54:19.639Z,101954.47
2022-12-18T00:59:21.336Z,101953.59
2022-12-18T01:04:22.988Z,101957.09
2022-12-18T01:09:24.629Z,101978.06
2022-12-18T01:14:27.410Z,101973.72
2022-12-18T01:19:29.647Z,101978.06
2022-12-18T01:24:31.307Z,101972.81
2022-12-18T01:29:33.042Z,101979.75
2022-12-18T01:34:36.749Z,101986.69
2022-12-18T01:39:39.192Z,101990.22
2022-12-18T01:45:00.919Z,101980.59
2022-12-18T01:50:13.258Z,101973.59
2022-12-18T01:55:18.063Z,101976.22
2022-12-18T02:00:22.165Z,101987.53
2022-12-18T02:05:40.103Z,101990.16
2022-12-18T02:11:08.536Z,101987.53
2022-12-18T02:16:31.344Z,101980.56
2022-12-18T02:21:48.276Z,101984.81
2022-12-18T02:26:54.300Z,101984.81
2022-12-18T02:31:59.870Z,101997.81
2022-12-18T02:37:03.560Z,102005.66
2022-12-18T02:42:09.146Z,101998.69
2022-12-18T02:47:13.693Z,101987.28
2022-12-18T02:52:53.111Z,102001.25
2022-12-18T02:57:59.990Z,102002.22
2022-12-18T03:03:34.375Z,101997.09
2022-12-18T03:08:40.554Z,101994.50
2022-12-18T03:13:57.103Z,101997.16
2022-12-18T03:19:15.781Z,102007.63
2022-12-18T03:24:18.569Z,102017.25
2022-12-18T03:29:29.051Z,102009.34
2022-12-18T03:34:35.255Z,102005.91
2022-12-18T03:39:39.004Z,102006.72
2022-12-18T03:44:58.866Z,102018.81
2022-12-18T03:50:20.439Z,102010.91
2022-12-18T03:55:26.064Z,102021.34
2022-12-18T04:00:34.159Z,102018.69
2022-12-18T04:05:42.184Z,102018.69
2022-12-18T04:10:44.502Z,102019.47
2022-12-18T04:15:47.410Z,102033.38
2022-12-18T04:20:51.184Z,102037.72
2022-12-18T04:25:53.490Z,102042.84
2022-12-18T04:31:08.575Z,102036.78
2022-12-18T04:36:10.811Z,102034.09
2022-12-18T04:41:13.021Z,102048.00
2022-12-18T04:46:16.029Z,102051.50
2022-12-18T04:51:20.867Z,102063.69
2022-12-18T04:56:26.353Z,102058.34
2022-12-18T05:01:34.088Z,102051.38
2022-12-18T05:06:36.188Z,102045.19
2022-12-18T05:11:38.010Z,102055.53
2022-12-18T05:16:39.718Z,102053.69
2022-12-18T05:21:41.460Z,102044.03
2022-12-18T05:26:43.183Z,102053.63
2022-12-18T05:31:44.896Z,102051.78
2022-12-18T05:36:46.621Z,102051.72
2022-12-18T05:41:48.293Z,102048.28
2022-12-18T05:46:50.011Z,102056.13
2022-12-18T05:51:51.758Z,102052.63
2022-12-18T05:56:53.412Z,102055.25
2022-12-18T06:01:55.236Z,102063.94
2022-12-18T06:06:56.944Z,102070.00
2022-12-18T06:11:58.566Z,102069.94
2022-12-18T06:17:00.175Z,102077.84
2022-12-18T06:22:01.822Z,102079.56
2022-12-18T06:27:03.479Z,102087.38
2022-12-18T06:32:05.404Z,102079.44
2022-12-18T06:37:07.090Z,102092.44
2022-12-18T06:42:08.725Z,102089.78
2022-12-18T06:47:10.492Z,102086.25
2022-12-18T06:52:12.138Z,102093.31
2022-12-18T06:57:13.919Z,102102.00
2022-12-18T07:02:15.696Z,102107.31
2022-12-18T07:07:17.447Z,102115.94
2022-12-18T07:12:19.131Z,102114.13
2022-12-18T07:17:20.748Z,102119.38
2022-12-18T07:22:22.889Z,102110.72
2022-12-18T07:27:24.533Z,102121.16
2022-12-18T07:32:26.202Z,102125.44
2022-12-18T07:37:27.807Z,102139.44
2022-12-18T07:42:32.004Z,102136.88
2022-12-18T07:47:36.088Z,102146.47
2022-12-18T07:52:37.731Z,102146.53
2022-12-18T07:57:50.713Z,102153.63
2022-12-18T08:02:54.339Z,102146.69
2022-12-18T08:07:57.169Z,102142.38
2022-12-18T08:13:04.465Z,102131.25
2022-12-18T08:18:10.085Z,102124.41
2022-12-18T08:23:14.488Z,102129.75
2022-12-18T08:28:17.870Z,102129.91
2022-12-18T08:33:19.531Z,102133.56
2022-12-18T08:38:21.156Z,102130.19
2022-12-18T08:43:41.516Z,102132.91
2022-12-18T08:48:43.485Z,102137.41
2022-12-18T08:53:45.662Z,102139.38
2022-12-18T08:58:47.609Z,102139.50
2022-12-18T09:03:50.301Z,102150.97
2022-12-18T09:08:52.002Z,102129.28
2022-12-18T09:13:54.900Z,102135.53
2022-12-18T09:19:00.489Z,102146.13
2022-12-18T09:24:02.274Z,102161.03
2022-12-18T09:29:04.663Z,102167.19
2022-12-18T09:34:06.266Z,102161.16
2022-12-18T09:39:08.993Z,102160.28
2022-12-18T09:44:13.887Z,102155.97
2022-12-18T09:49:17.826Z,102151.53
2022-12-18T09:54:26.942Z,102137.41
2022-12-18T09:59:40.146Z,102138.19
2022-12-18T10:04:43.032Z,102122.22
2022-12-18T10:09:51.145Z,102116.81
2022-12-18T10:14:55.416Z,102100.84
2022-12-18T10:20:03.941Z,102094.59
2022-12-18T10:25:27.428Z,102074.09
2022-12-18T10:30:29.174Z,102065.97
2022-12-18T10:35:30.714Z,102057.91
2022-12-18T10:40:33.324Z,102053.34
2022-12-18T10:45:35.065Z,102041.75
2022-12-18T10:51:09.657Z,102038.09
2022-12-18T10:56:00.545Z,102051.22
2022-12-18T11:01:05.884Z,102050.25
2022-12-18T11:06:16.345Z,102045.81
2022-12-18T11:11:22.892Z,102035.22
2022-12-18T11:16:24.950Z,102036.03
2022-12-18T11:21:26.625Z,102023.63
2022-12-18T11:26:35.593Z,102013.00
2022-12-18T11:31:37.437Z,102023.56
2022-12-18T11:36:43.486Z,102016.53
2022-12-18T11:42:13.074Z,102011.13
2022-12-18T11:47:42.566Z,102015.50
2022-12-18T11:52:44.317Z,102014.53
2022-12-18T11:58:04.449Z,102035.59
2022-12-18T12:03:24.859Z,102028.47
2022-12-18T12:08:55.087Z,102025.88
2022-12-18T12:14:16.597Z,102042.59
2022-12-18T12:19:28.236Z,102032.91
2022-12-18T12:24:48.444Z,102046.16
2022-12-18T12:29:49.918Z,102047.03
2022-12-18T12:35:00.988Z,102048.78
2022-12-18T12:40:26.738Z,102068.25
2022-12-18T12:45:40.712Z,102077.03
2022-12-18T12:50:43.049Z,102050.66
2022-12-18T12:55:45.164Z,102042.88
2022-12-18T13:00:54.507Z,102049.97
2022-12-18T13:06:00.563Z,102039.44
2022-12-18T13:11:24.843Z,102043.09
2022-12-18T13:16:28.564Z,102033.50
2022-12-18T13:21:32.295Z,102030.97
2022-12-18T13:26:35.253Z,102032.81
2022-12-18T13:31:40.064Z,102039.06
2022-12-18T13:36:41.784Z,102037.34
2022-12-18T13:41:43.654Z,102044.41
2022-12-18T13:46:47.683Z,102032.97
2022-12-18T13:51:52.398Z,102023.28
2022-12-18T13:56:54.414Z,102032.97
2022-12-18T14:01:59.008Z,102027.78
2022-12-18T14:07:09.524Z,102031.47
2022-12-18T14:12:47.266Z,102034.22
2022-12-18T14:17:51.655Z,102036.94
2022-12-18T14:22:53.637Z,102026.47
2022-12-18T14:28:11.276Z,102021.31
2022-12-18T14:33:15.734Z,102017.88
2022-12-18T14:38:17.411Z,102003.91
2022-12-18T14:43:18.948Z,101999.63
2022-12-18T14:48:23.695Z,102001.41
2022-12-18T14:54:10.104Z,101996.19
2022-12-18T14:59:22.203Z,102020.84
2022-12-18T15:04:27.298Z,102014.75
2022-12-18T15:09:29.089Z,102003.44
2022-12-18T15:14:36.992Z,102007.84
2022-12-18T15:19:42.464Z,102010.53
2022-12-18T15:24:44.173Z,101999.16
2022-12-18T15:29:45.740Z,101991.28
2022-12-18T15:34:47.442Z,101990.44
2022-12-18T15:39:49.000Z,102001.84
2022-12-18T15:44:50.701Z,101986.97
2022-12-18T15:49:52.304Z,101979.06
2022-12-18T15:55:12.613Z,101987.88
2022-12-18T16:00:14.697Z,101986.13
2022-12-18T16:05:18.067Z,101980.88
2022-12-18T16:10:20.030Z,101973.88
2022-12-18T16:15:24.722Z,101965.97
2022-12-18T16:20:26.769Z,101967.72
2022-12-18T16:25:29.093Z,101972.97
2022-12-18T16:30:38.172Z,101968.63
2022-12-18T16:35:40.578Z,101958.97
2022-12-18T16:41:02.081Z,101966.84
2022-12-18T16:46:03.903Z,101953.66
2022-12-18T16:51:05.753Z,101949.28
2022-12-18T16:56:07.528Z,101961.53
2022-12-18T17:01:11.296Z,101960.66
2022-12-18T17:06:13.027Z,101954.50
2022-12-18T17:11:14.770Z,101951.88
2022-12-18T17:16:17.633Z,101949.22
2022-12-18T17:21:19.876Z,101943.06
2022-12-18T17:26:21.614Z,101944.81
2022-12-18T17:31:24.144Z,101938.66
2022-12-18T17:36:29.007Z,101935.13
2022-12-18T17:41:31.638Z,101930.75
2022-12-18T17:46:34.340Z,101933.34
2022-12-18T17:51:36.104Z,101927.19
2022-12-18T17:56:38.055Z,101920.16
2022-12-18T18:01:44.500Z,101918.38
2022-12-18T18:06:46.895Z,101919.25
2022-12-18T18:12:07.139Z,101909.56
2022-12-18T18:17:09.018Z,101898.13
2022-12-18T18:22:11.214Z,101906.88
2022-12-18T18:27:13.142Z,101907.69
2022-12-18T18:32:16.913Z,101898.81
2022-12-18T18:37:18.938Z,101891.78
2022-12-18T18:42:20.607Z,101889.97
2022-12-18T18:47:22.242Z,101878.56
2022-12-18T18:52:23.955Z,101865.41
2022-12-18T18:57:30.131Z,101866.25
2022-12-18T19:02:32.434Z,101846.03
2022-12-18T19:07:34.203Z,101843.38
2022-12-18T19:12:54.555Z,101831.88
2022-12-18T19:17:56.694Z,101828.31
2022-12-18T19:22:59.295Z,101818.66
2022-12-18T19:28:01.009Z,101813.34
2022-12-18T19:33:19.922Z,101806.25
2022-12-18T19:38:24.669Z,101793.06
2022-12-18T19:43:27.524Z,101779.88
2022-12-18T19:48:29.413Z,101776.31
2022-12-18T19:53:31.054Z,101785.03
2022-12-18T19:58:32.736Z,101776.22
2022-12-18T20:03:34.678Z,101783.25
2022-12-18T20:08:36.945Z,101780.59
2022-12-18T20:13:39.107Z,101765.63
2022-12-18T20:18:41.052Z,101773.53
2022-12-18T20:23:43.970Z,101775.25
2022-12-18T20:28:45.931Z,101767.31
2022-12-18T20:33:49.953Z,101766.41
2022-12-18T20:38:59.330Z,101762.88
2022-12-18T20:44:03.531Z,101754.03
2022-12-18T20:49:05.301Z,101739.09
2022-12-18T20:54:11.509Z,101733.75
2022-12-18T20:59:13.579Z,101744.25
2022-12-18T21:04:15.580Z,101741.59
2022-12-18T21:09:20.453Z,101736.31
2022-12-18T21:14:24.896Z,101738.88
2022-12-18T21:19:27.287Z,101736.19
2022-12-18T21:24:32.768Z,101751.06
2022-12-18T21:29:35.089Z,101731.72
2022-12-18T21:34:37.362Z,101730.78
2022-12-18T21:39:39.747Z,101736.06
2022-12-18T21:44:41.828Z,101734.34
2022-12-18T21:49:44.271Z,101729.94
2022-12-18T21:54:48.809Z,101724.69
2022-12-18T21:59:54.489Z,101714.13
2022-12-18T22:04:56.180Z,101702.72
2022-12-18T22:10:01.280Z,101706.22
2022-12-18T22:15:05.141Z,101718.47
2022-12-18T22:20:12.641Z,101713.16
2022-12-18T22:25:14.896Z,101716.69
2022-12-18T22:30:16.559Z,101707.06
2022-12-18T22:35:18.096Z,101703.56
2022-12-18T22:40:24.608Z,101692.19
2022-12-18T22:45:27.902Z,101688.69
2022-12-18T22:50:29.817Z,101685.06
2022-12-18T22:55:31.519Z,101657.81
2022-12-18T23:00:33.114Z,101667.53
2022-12-18T23:05:34.846Z,101643.88
2022-12-18T23:10:39.820Z,101646.53
2022-12-18T23:15:45.715Z,101647.47
2022-12-18T23:20:48.332Z,101636.97
2022-12-18T23:25:50.852Z,101630.88
2022-12-18T23:30:52.677Z,101625.63
2022-12-18T23:36:01.354Z,101624.84
2022-12-18T23:41:12.865Z,101605.53
2022-12-18T23:46:23.799Z,101583.69
2022-12-18T23:51:26.123Z,101575.84
2022-12-18T23:56:29.806Z,101562.69
